Albany (ALB/KALB)

Map

Destinations

Information

Location
Albany, NY
Local Time
07:51 / 7:51 am
GMT Time
12:51 / 12:51 pm
Gates
Unassigned
No FAA reported delays
METAR KALB 161151Z 00000KT 10SM CLR M09/M12 A3043 RMK AO2 SLP308 I1000 I6000 T10941122 11067 21100 56003
TAF KALB 161120Z 1612/1712 00000KT P6SM SKC FM161400 19004KT P6SM SCT250 FM162300 20004KT P6SM BKN250 FM170200 VRB02KT P6SM BKN120 FM170900 00000KT P6SM BKN050 OVC080
  • No charts available